createdAt,value
2019-02-24T00:00:18.801Z,9.6
2019-02-24T00:02:19.211Z,9.5
2019-02-24T00:04:18.845Z,10.6
2019-02-24T00:06:19.156Z,9.8
2019-02-24T00:08:18.769Z,9.1
2019-02-24T00:10:18.915Z,10.1
2019-02-24T00:12:18.669Z,9.1
2019-02-24T00:14:19.295Z,9.5
2019-02-24T00:16:19.088Z,10.2
2019-02-24T00:18:18.835Z,9.7
2019-02-24T00:20:18.547Z,8.8
2019-02-24T00:22:19.177Z,10.4
2019-02-24T00:24:18.824Z,10.2
2019-02-24T00:26:18.609Z,9.8
2019-02-24T00:28:19.260Z,9.8
2019-02-24T00:30:18.895Z,9.4
2019-02-24T00:32:18.905Z,8.4
2019-02-24T00:34:18.559Z,8.3
2019-02-24T00:36:18.832Z,9.7
2019-02-24T00:38:18.517Z,10.1
2019-02-24T00:40:18.773Z,8.6
2019-02-24T00:42:19.421Z,9.8
2019-02-24T00:44:19.056Z,8.4
2019-02-24T00:46:18.907Z,7.5
2019-02-24T00:48:18.541Z,8.6
2019-02-24T00:50:19.187Z,9.1
2019-02-24T00:52:18.829Z,8.5
2019-02-24T00:54:18.536Z,8.7
2019-02-24T00:56:18.451Z,8.9
2019-02-24T00:58:19.056Z,9.6
2019-02-24T01:00:18.701Z,8.8
2019-02-24T01:02:19.345Z,8.7
2019-02-24T01:04:18.963Z,8.7
2019-02-24T01:06:18.957Z,10.1
2019-02-24T01:08:18.562Z,8.8
2019-02-24T01:10:18.698Z,9.1
2019-02-24T01:12:19.336Z,8.4
2019-02-24T01:14:18.980Z,9.9
2019-02-24T01:16:18.814Z,9.4
2019-02-24T01:18:18.507Z,9.3
2019-02-24T01:20:19.133Z,8.2
2019-02-24T01:22:18.755Z,8.5
2019-02-24T01:24:19.387Z,9.1
2019-02-24T01:26:18.675Z,8.8
2019-02-24T01:28:24.998Z,9.6
2019-02-24T01:30:19.349Z,10.1
2019-02-24T01:32:18.964Z,8.7
2019-02-24T01:34:18.611Z,9.2
2019-02-24T01:36:18.450Z,8.3
2019-02-24T01:38:19.055Z,8.2
2019-02-24T01:40:19.157Z,9.5
2019-02-24T01:42:18.778Z,7.6
2019-02-24T01:44:19.430Z,8.3
2019-02-24T01:46:19.180Z,8.3
2019-02-24T01:48:18.815Z,8.7
2019-02-24T01:50:18.441Z,8.3
2019-02-24T01:52:19.092Z,8.4
2019-02-24T01:54:18.715Z,7.6
2019-02-24T01:56:18.602Z,7.8
2019-02-24T01:58:19.218Z,9.7
2019-02-24T02:00:18.858Z,7.4
2019-02-24T02:02:18.532Z,8.8
2019-02-24T02:04:19.149Z,8.4
2019-02-24T02:06:18.539Z,7.8
2019-02-24T02:08:19.154Z,8
2019-02-24T02:10:19.317Z,8.4
2019-02-24T02:12:18.928Z,7.5
2019-02-24T02:14:18.569Z,8.6
2019-02-24T02:16:18.587Z,8.2
2019-02-24T02:18:19.278Z,7.6
2019-02-24T02:20:18.891Z,7.5
2019-02-24T02:22:19.361Z,9.6
2019-02-24T02:24:18.983Z,7.9
2019-02-24T02:26:19.185Z,7.6
2019-02-24T02:28:18.828Z,7.3
2019-02-24T02:30:18.472Z,7.5
2019-02-24T02:32:19.137Z,8.4
2019-02-24T02:34:18.784Z,7.9
2019-02-24T02:36:19.128Z,8.6
2019-02-24T02:38:18.777Z,7.3
2019-02-24T02:40:18.851Z,8.1
2019-02-24T02:42:18.501Z,7.4
2019-02-24T02:44:19.138Z,7.2
2019-02-24T02:46:18.599Z,7.5
2019-02-24T02:48:19.215Z,8.2
2019-02-24T02:50:18.865Z,7.3
2019-02-24T02:52:18.523Z,8.5
2019-02-24T02:54:19.128Z,8.1
2019-02-24T02:56:18.442Z,9.1
2019-02-24T02:58:19.082Z,7.7
2019-02-24T03:00:18.736Z,6.8
2019-02-24T03:02:24.235Z,8.9
2019-02-24T03:04:18.457Z,7.7
2019-02-24T03:06:18.744Z,8.2
2019-02-24T03:08:19.360Z,7
2019-02-24T03:10:18.460Z,8
2019-02-24T03:12:19.138Z,7.5
2019-02-24T03:14:18.777Z,7.3
2019-02-24T03:16:19.039Z,7
2019-02-24T03:18:18.772Z,6.9
2019-02-24T03:20:19.449Z,6.2
2019-02-24T03:22:19.077Z,7.6
2019-02-24T03:24:18.701Z,5.4
2019-02-24T03:26:18.716Z,7.3
2019-02-24T03:28:19.359Z,6.3
2019-02-24T03:30:19.019Z,7.3
2019-02-24T03:32:18.661Z,6.3
2019-02-24T03:34:19.290Z,6.3
2019-02-24T03:36:18.826Z,5.7
2019-02-24T03:38:18.496Z,6.7
2019-02-24T03:40:18.586Z,6.3
2019-02-24T03:42:19.230Z,6.8
2019-02-24T03:44:18.869Z,7.2
2019-02-24T03:46:18.479Z,5.8
2019-02-24T03:48:19.116Z,7.1
2019-02-24T03:50:18.749Z,8
2019-02-24T03:52:19.400Z,7
2019-02-24T03:54:19.015Z,7.6
2019-02-24T03:56:19.295Z,6.2
2019-02-24T03:58:18.927Z,6.3
2019-02-24T04:00:18.559Z,7.5
2019-02-24T04:02:19.226Z,7.6
2019-02-24T04:04:18.846Z,6.1
2019-02-24T04:06:18.745Z,7.3
2019-02-24T04:08:19.378Z,6
2019-02-24T04:10:18.639Z,6.8
2019-02-24T04:12:19.310Z,7.6
2019-02-24T04:14:18.943Z,7.1
2019-02-24T04:16:18.587Z,6.2
2019-02-24T04:18:19.289Z,6.3
2019-02-24T04:20:18.908Z,6.5
2019-02-24T04:22:18.619Z,6.7
2019-02-24T04:24:19.242Z,6.4
2019-02-24T04:26:19.392Z,7.2
2019-02-24T04:28:19.033Z,6.1
2019-02-24T04:30:18.693Z,6.5
2019-02-24T04:32:19.377Z,6
2019-02-24T04:34:19.004Z,6.3
2019-02-24T04:36:18.495Z,7.5
2019-02-24T04:38:19.128Z,7.1
2019-02-24T04:40:19.307Z,6.7
2019-02-24T04:42:18.946Z,7.3
2019-02-24T04:44:18.566Z,6.5
2019-02-24T04:46:18.917Z,6.9
2019-02-24T04:48:18.554Z,7.9
2019-02-24T04:50:19.238Z,7.5
2019-02-24T04:52:18.938Z,6.7
2019-02-24T04:54:18.601Z,7.1
2019-02-24T04:56:18.510Z,8.7
2019-02-24T04:58:19.116Z,7.3
2019-02-24T05:00:18.756Z,6.8
2019-02-24T05:02:19.415Z,7.4
2019-02-24T05:04:19.010Z,7.9
2019-02-24T05:06:18.964Z,6.3
2019-02-24T05:08:18.673Z,6
2019-02-24T05:10:18.853Z,8
2019-02-24T05:12:18.513Z,7.1
2019-02-24T05:14:19.133Z,7.2
2019-02-24T05:16:18.458Z,7.5
2019-02-24T05:18:19.211Z,6.9
2019-02-24T05:20:18.860Z,7
2019-02-24T05:22:18.530Z,8
2019-02-24T05:24:19.162Z,7.4
2019-02-24T05:26:18.472Z,6.5
2019-02-24T05:28:19.111Z,7
2019-02-24T05:30:18.756Z,6.8
2019-02-24T05:32:18.452Z,6.4
2019-02-24T05:34:19.117Z,7.7
2019-02-24T05:36:19.010Z,6.6
2019-02-24T05:38:18.641Z,6.3
2019-02-24T05:40:18.769Z,6.1
2019-02-24T05:42:19.432Z,6.5
2019-02-24T05:44:19.066Z,7
2019-02-24T05:46:19.366Z,6.9
2019-02-24T05:48:18.982Z,5.7
2019-02-24T05:50:18.638Z,5.9
2019-02-24T05:52:19.274Z,5.9
2019-02-24T05:54:18.966Z,6.5
2019-02-24T05:56:19.264Z,6.3
2019-02-24T05:58:18.888Z,5.7
2019-02-24T06:00:18.518Z,7.6
2019-02-24T06:02:19.141Z,5.5
2019-02-24T06:04:18.802Z,5.9
2019-02-24T06:06:18.420Z,5.8
2019-02-24T06:08:19.066Z,5.9
2019-02-24T06:10:19.233Z,6.1
2019-02-24T06:12:18.592Z,6.4
2019-02-24T06:14:19.257Z,5.9
2019-02-24T06:16:19.253Z,6.5
2019-02-24T06:18:18.949Z,4.7
2019-02-24T06:20:18.594Z,6
2019-02-24T06:22:19.234Z,5.6
2019-02-24T06:24:18.846Z,5.2
2019-02-24T06:26:18.865Z,5.4
2019-02-24T06:28:18.486Z,6.5
2019-02-24T06:30:19.106Z,6.1
2019-02-24T06:32:18.713Z,6.9
2019-02-24T06:34:19.341Z,6.4
2019-02-24T06:36:18.681Z,5.7
2019-02-24T06:38:19.298Z,5.7
2019-02-24T06:40:19.392Z,6.3
2019-02-24T06:42:18.984Z,5.7
2019-02-24T06:44:18.593Z,5.8
2019-02-24T06:46:18.938Z,6.2
2019-02-24T06:48:18.481Z,5.3
2019-02-24T06:50:19.113Z,5.9
2019-02-24T06:52:18.748Z,7.1
2019-02-24T06:54:19.369Z,7.1
2019-02-24T06:56:19.375Z,6
2019-02-24T06:58:19.012Z,5.5
2019-02-24T07:00:18.643Z,6.2
2019-02-24T07:02:19.268Z,7.5
2019-02-24T07:04:18.900Z,6.3
2019-02-24T07:06:19.340Z,6.1
2019-02-24T07:08:18.980Z,7.4
2019-02-24T07:10:19.111Z,5.3
2019-02-24T07:12:18.730Z,6.6
2019-02-24T07:14:19.383Z,5.8
2019-02-24T07:16:19.216Z,5.8
2019-02-24T07:18:18.906Z,6.2
2019-02-24T07:20:18.631Z,5.2
2019-02-24T07:22:19.268Z,6.6
2019-02-24T07:24:18.882Z,5.8
2019-02-24T07:26:18.679Z,5.1
2019-02-24T07:28:19.326Z,5.5
2019-02-24T07:30:23.333Z,5.8
2019-02-24T07:32:18.500Z,4.8
2019-02-24T07:34:19.146Z,4.7
2019-02-24T07:36:18.520Z,6
2019-02-24T07:38:19.128Z,5
2019-02-24T07:40:19.281Z,6.1
2019-02-24T07:42:18.922Z,5
2019-02-24T07:44:18.552Z,6
2019-02-24T07:46:19.086Z,5.9
2019-02-24T07:48:18.721Z,5.5
2019-02-24T07:50:19.354Z,6.1
2019-02-24T07:52:18.848Z,6.4
2019-02-24T07:54:18.459Z,6.5
2019-02-24T07:56:19.020Z,5
2019-02-24T07:58:18.670Z,6.2
2019-02-24T08:00:19.323Z,4.1
2019-02-24T08:02:18.948Z,5.8
2019-02-24T08:04:18.579Z,5.4
2019-02-24T08:06:18.639Z,5.7
2019-02-24T08:08:19.278Z,6.2
2019-02-24T08:10:19.361Z,6.2
2019-02-24T08:12:18.985Z,6.8
2019-02-24T08:14:18.600Z,6.9
2019-02-24T08:16:18.915Z,6
2019-02-24T08:18:18.643Z,5.6
2019-02-24T08:20:19.333Z,5.3
2019-02-24T08:22:18.975Z,6.7
2019-02-24T08:24:18.623Z,6.2
2019-02-24T08:26:19.177Z,6.8
2019-02-24T08:28:18.805Z,6.2
2019-02-24T08:30:18.434Z,6.3
2019-02-24T08:32:19.045Z,5.4
2019-02-24T08:34:18.656Z,7.2
2019-02-24T08:36:18.898Z,7.3
2019-02-24T08:38:18.520Z,7.9
2019-02-24T08:40:18.599Z,6.5
2019-02-24T08:42:19.214Z,6.5
2019-02-24T08:44:18.887Z,6.3
2019-02-24T08:46:18.663Z,5.7
2019-02-24T08:48:19.416Z,6.2
2019-02-24T08:50:19.056Z,7.4
2019-02-24T08:52:18.679Z,6.8
2019-02-24T08:54:19.294Z,6
2019-02-24T08:56:18.659Z,5.6
2019-02-24T08:58:19.334Z,5.3
2019-02-24T09:00:18.966Z,5.9
2019-02-24T09:02:18.614Z,5.5
2019-02-24T09:04:19.242Z,5.2
2019-02-24T09:06:18.650Z,6.5
2019-02-24T09:08:19.288Z,5.3
2019-02-24T09:10:19.494Z,5.7
2019-02-24T09:12:19.109Z,6
2019-02-24T09:14:18.716Z,5.9
2019-02-24T09:16:18.520Z,5.5
2019-02-24T09:18:19.226Z,6
2019-02-24T09:20:18.855Z,6.2
2019-02-24T09:22:18.495Z,6.7
2019-02-24T09:24:19.124Z,7.4
2019-02-24T09:26:19.279Z,4.6
2019-02-24T09:28:18.897Z,6
2019-02-24T09:30:18.597Z,6.1
2019-02-24T09:32:19.241Z,6.3
2019-02-24T09:34:18.887Z,6.2
2019-02-24T09:36:18.813Z,6.2
2019-02-24T09:38:18.460Z,4.9
2019-02-24T09:40:18.582Z,6.5
2019-02-24T09:42:19.226Z,5.5
2019-02-24T09:44:18.852Z,6.7
2019-02-24T09:46:18.612Z,6
2019-02-24T09:48:19.321Z,6
2019-02-24T09:50:18.979Z,6.4
2019-02-24T09:52:18.606Z,5.6
2019-02-24T09:54:19.290Z,6.8
2019-02-24T09:56:18.719Z,6.2
2019-02-24T09:58:19.403Z,5.8
2019-02-24T10:00:19.049Z,7.1
2019-02-24T10:02:18.659Z,5.3
2019-02-24T10:04:19.338Z,6
2019-02-24T10:06:19.235Z,4.1
2019-02-24T10:08:18.891Z,5.2
2019-02-24T10:10:19.035Z,6.1
2019-02-24T10:12:18.701Z,6.1
2019-02-24T10:14:19.309Z,5.5
2019-02-24T10:16:19.137Z,5.1
2019-02-24T10:18:18.824Z,6.5
2019-02-24T10:20:18.457Z,5.4
2019-02-24T10:22:19.115Z,5.2
2019-02-24T10:24:18.735Z,6.4
2019-02-24T10:26:18.902Z,5
2019-02-24T10:28:18.566Z,5.2
2019-02-24T10:30:19.230Z,6.2
2019-02-24T10:32:18.859Z,6.2
2019-02-24T10:34:18.484Z,5.6
2019-02-24T10:36:18.778Z,5.5
2019-02-24T10:38:19.418Z,6
2019-02-24T10:40:18.579Z,5.8
2019-02-24T10:42:19.218Z,5.4
2019-02-24T10:44:18.874Z,4.9
2019-02-24T10:46:19.149Z,5.1
2019-02-24T10:48:18.804Z,6.3
2019-02-24T10:50:18.460Z,5.2
2019-02-24T10:52:19.101Z,5.7
2019-02-24T10:54:18.725Z,5
2019-02-24T10:56:19.018Z,4.7
2019-02-24T10:58:18.673Z,4.2
2019-02-24T11:00:19.316Z,5.3
2019-02-24T11:02:18.996Z,5.2
2019-02-24T11:04:18.629Z,4.6
2019-02-24T11:06:18.847Z,4.6
2019-02-24T11:08:18.492Z,4.6
2019-02-24T11:10:18.651Z,4.4
2019-02-24T11:12:18.521Z,4.5
2019-02-24T11:14:19.152Z,4.1
2019-02-24T11:16:19.435Z,5.3
2019-02-24T11:18:19.136Z,4.3
2019-02-24T11:20:18.799Z,4.4
2019-02-24T11:22:19.446Z,5.3
2019-02-24T11:24:19.088Z,4.8
2019-02-24T11:26:18.902Z,5
2019-02-24T11:28:18.570Z,4.3
2019-02-24T11:30:19.282Z,5.1
2019-02-24T11:32:18.939Z,4.5
2019-02-24T11:34:18.598Z,4.8
2019-02-24T11:36:18.465Z,4.3
2019-02-24T11:38:19.094Z,5.2
2019-02-24T11:40:19.223Z,4.3
2019-02-24T11:42:18.848Z,3.8
2019-02-24T11:44:18.474Z,3.3
2019-02-24T11:46:19.301Z,3.4
2019-02-24T11:48:18.960Z,3.6
2019-02-24T11:50:18.611Z,3.8
2019-02-24T11:52:19.237Z,2.9
2019-02-24T11:54:18.849Z,2.8
2019-02-24T11:56:19.716Z,3.1
2019-02-24T11:58:19.454Z,2.9
2019-02-24T12:00:19.153Z,2.4
2019-02-24T12:02:18.794Z,2.9
2019-02-24T12:04:19.455Z,3.4
2019-02-24T12:06:18.776Z,4.1
2019-02-24T12:08:19.411Z,3.2
2019-02-24T12:10:18.576Z,2.8
2019-02-24T12:12:19.217Z,3
2019-02-24T12:14:18.881Z,3.5
2019-02-24T12:16:18.480Z,3.7
2019-02-24T12:18:19.180Z,3.7
2019-02-24T12:20:18.825Z,3.2
2019-02-24T12:22:18.463Z,3.1
2019-02-24T12:24:19.113Z,3.5
2019-02-24T12:26:18.868Z,3
2019-02-24T12:28:18.507Z,2.8
2019-02-24T12:30:19.152Z,3.5
2019-02-24T12:32:18.838Z,4.1
2019-02-24T12:34:18.488Z,3.3
2019-02-24T12:36:18.448Z,3.7
2019-02-24T12:38:19.093Z,3.3
2019-02-24T12:40:19.324Z,4.1
2019-02-24T12:42:18.987Z,3.3
2019-02-24T12:44:18.607Z,3.3
2019-02-24T12:46:19.425Z,3.4
2019-02-24T12:48:19.086Z,3.8
2019-02-24T12:50:18.748Z,4.8
2019-02-24T12:52:20.707Z,3.4
2019-02-24T12:54:19.420Z,3.3
2019-02-24T12:56:19.282Z,3.6
2019-02-24T12:58:18.971Z,4.5
2019-02-24T13:00:18.660Z,3.2
2019-02-24T13:02:19.371Z,4.3
2019-02-24T13:04:19.066Z,3.4
2019-02-24T13:06:19.085Z,3.5
2019-02-24T13:08:18.781Z,3.4
2019-02-24T13:10:18.906Z,3.6
2019-02-24T13:12:18.538Z,3.7
2019-02-24T13:14:19.191Z,3.7
2019-02-24T13:16:18.985Z,3.9
2019-02-24T13:18:18.727Z,3.5
2019-02-24T13:20:19.393Z,4.3
2019-02-24T13:22:19.061Z,3.6
2019-02-24T13:24:18.741Z,3.9
2019-02-24T13:26:19.077Z,3.3
2019-02-24T13:28:18.753Z,3.6
2019-02-24T13:30:19.453Z,2.9
2019-02-24T13:32:19.114Z,3.8
2019-02-24T13:34:17.793Z,3.1
2019-02-24T13:36:18.638Z,2.7
2019-02-24T13:38:19.310Z,2.3
2019-02-24T13:40:18.446Z,2.9
2019-02-24T13:42:19.118Z,2.2
2019-02-24T13:44:18.782Z,2.4
2019-02-24T13:46:17.799Z,2.7
2019-02-24T13:48:17.461Z,2.5
2019-02-24T13:50:19.182Z,1.6
2019-02-24T13:52:17.835Z,2.3
2019-02-24T13:54:18.519Z,2
2019-02-24T13:56:17.833Z,2
2019-02-24T13:58:18.512Z,2.3
2019-02-24T14:00:19.183Z,2.3
2019-02-24T14:02:23.729Z,2.3
2019-02-24T14:04:17.984Z,2.3
2019-02-24T14:06:17.927Z,2.2
2019-02-24T14:08:17.589Z,2.4
2019-02-24T14:10:17.747Z,2.9
2019-02-24T14:12:18.435Z,2.1
2019-02-24T14:14:18.134Z,2.1
2019-02-24T14:16:17.470Z,2.3
2019-02-24T14:18:19.207Z,2.4
2019-02-24T14:20:18.864Z,2.8
2019-02-24T14:22:18.540Z,2.7
2019-02-24T14:24:19.962Z,1.6
2019-02-24T14:26:19.815Z,2.8
2019-02-24T14:28:18.546Z,2.4
2019-02-24T14:30:19.201Z,2.1
2019-02-24T14:32:18.871Z,2.6
2019-02-24T14:34:18.540Z,3.1
2019-02-24T14:36:18.316Z,2.5
2019-02-24T14:38:17.991Z,1.8
2019-02-24T14:40:18.158Z,2.2
2019-02-24T14:42:17.829Z,1.8
2019-02-24T14:44:17.513Z,2.1
2019-02-24T14:46:18.039Z,1.6
2019-02-24T14:48:17.713Z,2.4
2019-02-24T14:50:18.396Z,2.3
2019-02-24T14:52:18.060Z,2.6
2019-02-24T14:54:17.739Z,2.2
2019-02-24T14:56:18.016Z,1.9
2019-02-24T14:58:17.676Z,2
2019-02-24T15:00:18.379Z,1.2
2019-02-24T15:02:18.113Z,1
2019-02-24T15:04:17.791Z,1.2
2019-02-24T15:06:18.121Z,0.9
2019-02-24T15:08:17.788Z,0.8
2019-02-24T15:10:17.918Z,1.1
2019-02-24T15:12:17.586Z,1.3
2019-02-24T15:14:18.253Z,1
2019-02-24T15:16:17.541Z,1
2019-02-24T15:18:18.287Z,2.1
2019-02-24T15:20:17.959Z,0.9
2019-02-24T15:22:17.631Z,1.1
2019-02-24T15:24:19.301Z,1.2
2019-02-24T15:26:19.322Z,2.2
2019-02-24T15:28:18.043Z,1.3
2019-02-24T15:30:18.732Z,2.3
2019-02-24T15:32:19.434Z,3.2
2019-02-24T15:34:19.081Z,3
2019-02-24T15:36:18.399Z,4.2
2019-02-24T15:38:19.257Z,2.9
2019-02-24T15:40:19.457Z,2.5
2019-02-24T15:42:19.120Z,2.6
2019-02-24T15:44:18.823Z,2.1
2019-02-24T15:46:18.795Z,2.8
2019-02-24T15:48:18.498Z,1.7
2019-02-24T15:50:19.172Z,1.7
2019-02-24T15:52:18.878Z,2.4
2019-02-24T15:54:18.531Z,2.1
2019-02-24T15:56:19.345Z,3
2019-02-24T15:58:18.999Z,2.2
2019-02-24T16:00:17.717Z,2.4
2019-02-24T16:02:19.396Z,2.3
2019-02-24T16:04:18.108Z,3.1
2019-02-24T16:06:19.397Z,1.7
2019-02-24T16:08:19.042Z,2.4
2019-02-24T16:10:19.248Z,2.2
2019-02-24T16:12:18.937Z,2.3
2019-02-24T16:14:18.602Z,1.9
2019-02-24T16:16:18.921Z,2.2
2019-02-24T16:18:18.650Z,2
2019-02-24T16:20:19.328Z,1.7
2019-02-24T16:22:18.986Z,2.3
2019-02-24T16:24:18.643Z,2.1
2019-02-24T16:26:18.935Z,2.2
2019-02-24T16:28:18.605Z,2.7
2019-02-24T16:30:19.285Z,3.6
2019-02-24T16:32:18.695Z,2.1
2019-02-24T16:34:19.374Z,2.2
2019-02-24T16:36:18.726Z,3
2019-02-24T16:38:19.407Z,2.7
2019-02-24T16:40:18.500Z,3.2
2019-02-24T16:42:19.155Z,2.9
2019-02-24T16:44:18.814Z,2.9
2019-02-24T16:46:19.096Z,2.5
2019-02-24T16:48:18.749Z,2.9
2019-02-24T16:50:19.420Z,2.5
2019-02-24T16:52:19.074Z,2.8
2019-02-24T16:54:18.738Z,3.1
2019-02-24T16:56:18.608Z,3.2
2019-02-24T16:58:19.231Z,3.3
2019-02-24T17:00:18.875Z,3.3
2019-02-24T17:02:22.848Z,3.2
2019-02-24T17:04:18.806Z,3.3
2019-02-24T17:06:18.620Z,4.6
2019-02-24T17:08:19.286Z,3.3
2019-02-24T17:10:19.395Z,4
2019-02-24T17:12:18.800Z,5.1
2019-02-24T17:14:18.435Z,8.2
2019-02-24T17:16:18.681Z,8.7
2019-02-24T17:18:19.703Z,7.5
2019-02-24T17:20:19.405Z,4
2019-02-24T17:22:19.066Z,5.3
2019-02-24T17:24:18.719Z,6.5
2019-02-24T17:26:18.512Z,5.7
2019-02-24T17:28:19.190Z,4.9
2019-02-24T17:30:18.856Z,5.1
2019-02-24T17:32:19.305Z,5.5
2019-02-24T17:34:18.976Z,5.1
2019-02-24T17:36:19.336Z,5.4
2019-02-24T17:38:19.014Z,5.9
2019-02-24T17:40:19.585Z,6.5
2019-02-24T17:42:19.410Z,5.7
2019-02-24T17:44:19.053Z,5
2019-02-24T17:46:19.021Z,4.6
2019-02-24T17:48:19.751Z,5.4
2019-02-24T17:50:18.584Z,5.7
2019-02-24T17:52:19.247Z,5.5
2019-02-24T17:54:18.908Z,4.6
2019-02-24T17:56:18.828Z,5
2019-02-24T17:58:18.467Z,4.3
2019-02-24T18:00:19.148Z,5
2019-02-24T18:02:18.806Z,4.9
2019-02-24T18:04:18.461Z,4.7
2019-02-24T18:06:18.728Z,5.1
2019-02-24T18:08:27.885Z,7.8
2019-02-24T18:10:18.557Z,5.6
2019-02-24T18:12:19.216Z,5.5
2019-02-24T18:14:18.853Z,9.2
2019-02-24T18:16:19.093Z,9.4
2019-02-24T18:18:18.848Z,7.8
2019-02-24T18:20:18.494Z,6.8
2019-02-24T18:22:18.923Z,5.3
2019-02-24T18:24:18.574Z,5.9
2019-02-24T18:26:18.548Z,6.7
2019-02-24T18:28:19.186Z,4.8
2019-02-24T18:30:18.806Z,6.4
2019-02-24T18:32:18.445Z,7.1
2019-02-24T18:34:19.096Z,5.8
2019-02-24T18:36:18.545Z,7.1
2019-02-24T18:38:19.162Z,6.3
2019-02-24T18:40:19.306Z,6.3
2019-02-24T18:42:18.983Z,5.7
2019-02-24T18:44:18.611Z,5.8
2019-02-24T18:46:18.875Z,5.6
2019-02-24T18:48:18.525Z,5.5
2019-02-24T18:50:19.204Z,6.8
2019-02-24T18:52:18.902Z,6.1
2019-02-24T18:54:18.553Z,6.4
2019-02-24T18:56:18.804Z,7.2
2019-02-24T18:58:18.464Z,7.2
2019-02-24T19:00:19.118Z,7.1
2019-02-24T19:02:18.761Z,7.1
2019-02-24T19:04:19.437Z,7.9
2019-02-24T19:06:19.188Z,9.7
2019-02-24T19:08:18.853Z,8.1
2019-02-24T19:10:21.057Z,7.7
2019-02-24T19:12:19.156Z,9.2
2019-02-24T19:14:18.823Z,8.6
2019-02-24T19:16:19.058Z,8.7
2019-02-24T19:18:18.811Z,10
2019-02-24T19:20:18.460Z,7.8
2019-02-24T19:22:19.086Z,6.9
2019-02-24T19:24:18.708Z,7.1
2019-02-24T19:26:18.505Z,7.8
2019-02-24T19:28:19.128Z,7.2
2019-02-24T19:30:18.784Z,8
2019-02-24T19:32:19.446Z,9.3
2019-02-24T19:34:19.105Z,8.1
2019-02-24T19:36:18.912Z,10.4
2019-02-24T19:38:18.604Z,8.9
2019-02-24T19:40:18.752Z,8.7
2019-02-24T19:42:19.391Z,9.2
2019-02-24T19:44:19.008Z,8.5
2019-02-24T19:46:19.346Z,8.8
2019-02-24T19:48:18.985Z,7.6
2019-02-24T19:50:18.621Z,7.5
2019-02-24T19:52:19.243Z,8
2019-02-24T19:54:18.871Z,8.9
2019-02-24T19:56:18.497Z,8.6
2019-02-24T19:58:19.147Z,9.3
2019-02-24T20:00:18.797Z,8.3
2019-02-24T20:02:18.449Z,9
2019-02-24T20:04:19.107Z,9.1
2019-02-24T20:06:19.212Z,9.1
2019-02-24T20:08:18.828Z,9.4
2019-02-24T20:10:18.967Z,8.8
2019-02-24T20:12:18.594Z,10
2019-02-24T20:14:19.194Z,8.3
2019-02-24T20:16:18.593Z,8.1
2019-02-24T20:18:19.312Z,8.2
2019-02-24T20:20:18.987Z,8.5
2019-02-24T20:22:18.620Z,9.3
2019-02-24T20:24:19.277Z,7.8
2019-02-24T20:26:18.578Z,7.8
2019-02-24T20:28:19.216Z,8
2019-02-24T20:30:18.872Z,9.5
2019-02-24T20:32:18.531Z,8.4
2019-02-24T20:34:25.147Z,8.1
2019-02-24T20:36:19.144Z,9.6
2019-02-24T20:38:18.773Z,7.6
2019-02-24T20:40:18.887Z,7.6
2019-02-24T20:42:18.546Z,8.3
2019-02-24T20:44:19.198Z,8.5
2019-02-24T20:46:18.994Z,8.4
2019-02-24T20:48:18.652Z,8.1
2019-02-24T20:50:19.325Z,8.1
2019-02-24T20:52:18.973Z,8.3
2019-02-24T20:54:18.613Z,8.3
2019-02-24T20:56:18.861Z,8
2019-02-24T20:58:18.500Z,8.3
2019-02-24T21:00:19.119Z,7.3
2019-02-24T21:02:18.738Z,8.4
2019-02-24T21:04:19.389Z,8.3
2019-02-24T21:06:19.225Z,8.2
2019-02-24T21:08:18.834Z,7.9
2019-02-24T21:10:18.930Z,7.2
2019-02-24T21:12:18.553Z,7.2
2019-02-24T21:14:19.196Z,8.9
2019-02-24T21:16:18.673Z,8.7
2019-02-24T21:18:19.364Z,7.8
2019-02-24T21:20:19.063Z,9.1
2019-02-24T21:22:18.719Z,8
2019-02-24T21:24:19.350Z,7.9
2019-02-24T21:26:18.644Z,8.6
2019-02-24T21:28:19.270Z,7.5
2019-02-24T21:30:18.904Z,8.8
2019-02-24T21:32:18.537Z,7.4
2019-02-24T21:34:19.162Z,9.4
2019-02-24T21:36:18.930Z,8.1
2019-02-24T21:38:18.574Z,7.5
2019-02-24T21:40:18.654Z,6.9
2019-02-24T21:42:19.285Z,9.2
2019-02-24T21:44:18.921Z,8.2
2019-02-24T21:46:18.699Z,9.3
2019-02-24T21:48:19.351Z,6.9
2019-02-24T21:50:19.005Z,8.1
2019-02-24T21:52:18.650Z,7.8
2019-02-24T21:54:19.281Z,8.1
2019-02-24T21:56:19.094Z,8.4
2019-02-24T21:58:18.731Z,7.2
2019-02-24T22:00:19.395Z,8.2
2019-02-24T22:02:19.050Z,8.1
2019-02-24T22:04:18.689Z,7.7
2019-02-24T22:06:19.018Z,6.6
2019-02-24T22:08:18.661Z,7.4
2019-02-24T22:10:18.820Z,6.7
2019-02-24T22:12:18.455Z,7.8
2019-02-24T22:14:19.076Z,7.2
2019-02-24T22:16:18.950Z,8.1
2019-02-24T22:18:18.642Z,6.1
2019-02-24T22:20:19.265Z,7
2019-02-24T22:22:18.917Z,8.1
2019-02-24T22:24:18.591Z,6.8
2019-02-24T22:26:18.870Z,7.4
2019-02-24T22:28:18.509Z,8.2
2019-02-24T22:30:19.151Z,8
2019-02-24T22:32:18.766Z,8.1
2019-02-24T22:34:19.406Z,8.6
2019-02-24T22:36:18.660Z,7.7
2019-02-24T22:38:19.289Z,7.7
2019-02-24T22:40:19.407Z,7.1
2019-02-24T22:42:19.062Z,8.3
2019-02-24T22:44:18.736Z,7.1
2019-02-24T22:46:18.523Z,7.8
2019-02-24T22:48:19.144Z,8.6
2019-02-24T22:50:18.785Z,8.5
2019-02-24T22:52:18.437Z,8.8
2019-02-24T22:54:19.070Z,8.5
2019-02-24T22:56:18.886Z,7.9
2019-02-24T22:58:18.517Z,8.2
2019-02-24T23:00:19.169Z,8.4
2019-02-24T23:02:18.800Z,8.6
2019-02-24T23:04:18.424Z,9
2019-02-24T23:06:18.711Z,9.1
2019-02-24T23:08:19.328Z,7.6
2019-02-24T23:10:19.395Z,9.3
2019-02-24T23:12:19.046Z,7.7
2019-02-24T23:14:18.688Z,7.5
2019-02-24T23:16:18.496Z,8.2
2019-02-24T23:18:19.220Z,8.6
2019-02-24T23:20:18.863Z,8.4
2019-02-24T23:22:18.500Z,10.1
2019-02-24T23:24:19.150Z,9.7
2019-02-24T23:26:18.957Z,8.8
2019-02-24T23:28:18.615Z,7.4
2019-02-24T23:30:19.261Z,8.6
2019-02-24T23:32:18.914Z,9.1
2019-02-24T23:34:18.546Z,9.6
2019-02-24T23:36:19.364Z,8.6
2019-02-24T23:38:18.993Z,8.8
2019-02-24T23:40:19.120Z,7.7
2019-02-24T23:42:18.744Z,8.3
2019-02-24T23:44:19.355Z,8.6
2019-02-24T23:46:18.630Z,8.3
2019-02-24T23:48:19.269Z,9.7
2019-02-24T23:50:18.926Z,7.8
2019-02-24T23:52:18.572Z,8.5
2019-02-24T23:54:19.186Z,7.5
2019-02-24T23:56:19.430Z,8.7
2019-02-24T23:58:19.056Z,8
